createdAt,value
2023-01-31T00:00:54.760Z,1.67
2023-01-31T00:03:24.367Z,3.03
2023-01-31T00:05:51.663Z,1.75
2023-01-31T00:08:18.907Z,1.17
2023-01-31T00:10:47.468Z,4.00
2023-01-31T00:13:14.726Z,1.02
2023-01-31T00:15:42.003Z,2.83
2023-01-31T00:18:09.299Z,5.07
2023-01-31T00:20:37.051Z,2.58
2023-01-31T00:23:04.370Z,2.33
2023-01-31T00:25:31.681Z,4.15
2023-01-31T00:28:00.365Z,2.25
2023-01-31T00:30:27.659Z,3.95
2023-01-31T00:32:54.951Z,2.38
2023-01-31T00:35:22.448Z,4.57
2023-01-31T00:37:49.787Z,0.45
2023-01-31T00:40:17.364Z,3.63
2023-01-31T00:42:45.955Z,3.53
2023-01-31T00:45:14.505Z,1.30
2023-01-31T00:47:41.753Z,4.60
2023-01-31T00:50:10.823Z,3.38
2023-01-31T00:52:38.430Z,1.67
2023-01-31T00:55:06.040Z,1.65
2023-01-31T00:57:33.983Z,3.50
2023-01-31T01:00:01.501Z,1.85
2023-01-31T01:02:30.097Z,1.38
2023-01-31T01:04:57.471Z,1.33
2023-01-31T01:07:24.699Z,2.00
2023-01-31T01:09:52.441Z,2.05
2023-01-31T01:12:19.663Z,2.25
2023-01-31T01:14:48.564Z,1.98
2023-01-31T01:17:15.808Z,4.65
2023-01-31T01:19:44.342Z,3.28
2023-01-31T01:22:16.133Z,1.58
2023-01-31T01:24:43.731Z,2.20
2023-01-31T01:27:12.478Z,1.35
2023-01-31T01:29:40.030Z,2.47
2023-01-31T01:32:07.787Z,1.88
2023-01-31T01:34:37.006Z,1.67
2023-01-31T01:37:11.540Z,3.88
2023-01-31T01:39:38.946Z,3.42
2023-01-31T01:42:08.105Z,0.32
2023-01-31T01:44:43.808Z,2.03
2023-01-31T01:47:14.974Z,2.45
2023-01-31T01:49:42.580Z,2.55
2023-01-31T01:52:12.376Z,2.08
2023-01-31T01:54:43.923Z,2.17
2023-01-31T01:57:14.968Z,2.00
2023-01-31T01:59:44.280Z,3.00
2023-01-31T02:02:11.925Z,2.10
2023-01-31T02:04:41.172Z,4.68
2023-01-31T02:07:08.708Z,1.08
2023-01-31T02:09:40.367Z,2.10
2023-01-31T02:12:07.767Z,3.28
2023-01-31T02:14:34.997Z,1.08
2023-01-31T02:17:02.231Z,0.35
2023-01-31T02:19:33.654Z,2.05
2023-01-31T02:22:06.735Z,0.80
2023-01-31T02:24:51.343Z,1.30
2023-01-31T02:27:30.588Z,3.50
2023-01-31T02:30:13.792Z,4.10
2023-01-31T02:35:13.728Z,1.80
2023-01-31T02:37:45.054Z,2.45
2023-01-31T02:40:17.538Z,1.15
2023-01-31T02:42:49.983Z,2.50
2023-01-31T02:45:19.676Z,3.22
2023-01-31T02:47:53.492Z,1.95
2023-01-31T02:50:27.879Z,2.67
2023-01-31T02:52:58.884Z,1.02
2023-01-31T02:55:46.869Z,3.90
2023-01-31T02:58:15.444Z,1.25
2023-01-31T03:00:45.540Z,3.60
2023-01-31T03:03:17.913Z,2.03
2023-01-31T03:05:57.476Z,1.88
2023-01-31T03:08:24.776Z,2.85
2023-01-31T03:10:59.705Z,1.75
2023-01-31T03:13:33.203Z,2.83
2023-01-31T03:16:21.465Z,3.13
2023-01-31T03:18:52.488Z,1.58
2023-01-31T03:21:23.419Z,2.25
2023-01-31T03:23:53.635Z,0.20
2023-01-31T03:26:21.787Z,0.95
2023-01-31T03:28:54.512Z,1.35
2023-01-31T03:31:24.358Z,4.68
2023-01-31T03:33:53.069Z,0.73
2023-01-31T03:36:25.947Z,2.10
2023-01-31T03:38:58.004Z,0.77
2023-01-31T03:41:26.512Z,0.77
2023-01-31T03:43:58.707Z,0.20
2023-01-31T03:46:29.100Z,3.30
2023-01-31T03:48:57.976Z,2.30
2023-01-31T03:51:28.915Z,0.65
2023-01-31T03:53:59.549Z,2.05
2023-01-31T03:56:29.593Z,0.40
2023-01-31T03:58:59.610Z,2.22
2023-01-31T04:01:29.155Z,0.65
2023-01-31T04:03:58.695Z,0.55
2023-01-31T04:06:27.696Z,1.30
2023-01-31T04:08:54.995Z,2.58
2023-01-31T04:11:25.757Z,3.28
2023-01-31T04:13:53.012Z,2.25
2023-01-31T04:16:20.571Z,4.05
2023-01-31T04:18:48.009Z,4.03
2023-01-31T04:21:15.761Z,1.23
2023-01-31T04:23:44.616Z,0.50
2023-01-31T04:26:12.458Z,1.42
2023-01-31T04:28:39.799Z,0.20
2023-01-31T04:31:07.253Z,0.52
2023-01-31T04:33:34.713Z,0.30
2023-01-31T04:36:02.026Z,1.90
2023-01-31T04:38:29.265Z,2.60
2023-01-31T04:40:57.912Z,0.73
2023-01-31T04:43:25.203Z,4.78
2023-01-31T04:45:52.476Z,0.45
2023-01-31T04:48:19.978Z,5.10
2023-01-31T04:50:47.279Z,1.15
2023-01-31T04:53:15.255Z,1.67
2023-01-31T04:55:42.669Z,1.60
2023-01-31T04:58:11.437Z,1.90
2023-01-31T05:00:39.159Z,2.00
2023-01-31T05:03:06.529Z,1.73
2023-01-31T05:05:36.299Z,1.65
2023-01-31T05:08:03.859Z,4.25
2023-01-31T05:10:31.609Z,2.47
2023-01-31T05:12:59.105Z,2.13
2023-01-31T05:15:27.773Z,1.20
2023-01-31T05:18:03.374Z,1.58
2023-01-31T05:20:31.485Z,4.88
2023-01-31T05:22:59.101Z,0.30
2023-01-31T05:25:27.696Z,0.57
2023-01-31T05:27:55.490Z,0.30
2023-01-31T05:30:24.261Z,1.83
2023-01-31T05:32:53.319Z,1.77
2023-01-31T05:35:20.852Z,2.88
2023-01-31T05:37:48.474Z,1.75
2023-01-31T05:40:16.847Z,1.77
2023-01-31T05:42:44.949Z,1.52
2023-01-31T05:45:13.539Z,2.13
2023-01-31T05:47:40.907Z,1.08
2023-01-31T05:50:10.353Z,5.55
2023-01-31T05:52:37.618Z,0.20
2023-01-31T05:55:05.256Z,0.52
2023-01-31T05:57:32.669Z,0.65
2023-01-31T06:00:01.206Z,1.90
2023-01-31T06:02:28.664Z,1.48
2023-01-31T06:04:56.512Z,1.27
2023-01-31T06:07:25.196Z,2.55
2023-01-31T06:09:52.457Z,0.25
2023-01-31T06:12:19.715Z,2.65
2023-01-31T06:14:47.082Z,1.00
2023-01-31T06:17:14.452Z,0.50
2023-01-31T06:19:41.659Z,0.70
2023-01-31T06:22:09.150Z,0.73
2023-01-31T06:24:37.731Z,2.25
2023-01-31T06:27:05.088Z,5.15
2023-01-31T06:29:32.851Z,3.28
2023-01-31T06:32:00.233Z,1.95
2023-01-31T06:34:27.513Z,1.00
2023-01-31T06:36:54.763Z,5.35
2023-01-31T06:39:22.101Z,1.90
2023-01-31T06:41:50.853Z,3.60
2023-01-31T06:44:18.120Z,2.50
2023-01-31T06:46:45.387Z,0.60
2023-01-31T06:49:13.679Z,1.35
2023-01-31T06:51:40.928Z,2.10
2023-01-31T06:54:08.232Z,3.00
2023-01-31T06:56:35.645Z,1.45
2023-01-31T06:59:04.480Z,1.15
2023-01-31T07:01:31.742Z,1.38
2023-01-31T07:03:59.083Z,1.05
2023-01-31T07:06:26.386Z,2.03
2023-01-31T07:08:53.847Z,0.75
2023-01-31T07:11:21.335Z,1.60
2023-01-31T07:13:50.199Z,1.20
2023-01-31T07:16:19.719Z,1.33
2023-01-31T07:18:47.119Z,1.23
2023-01-31T07:21:14.680Z,2.28
2023-01-31T07:23:42.675Z,0.40
2023-01-31T07:26:09.924Z,3.10
2023-01-31T07:28:37.471Z,0.43
2023-01-31T07:31:05.242Z,0.20
2023-01-31T07:33:34.096Z,2.58
2023-01-31T07:36:02.114Z,1.80
2023-01-31T07:38:29.992Z,1.95
2023-01-31T07:40:59.448Z,2.95
2023-01-31T07:43:26.749Z,2.25
2023-01-31T07:45:54.660Z,4.63
2023-01-31T07:48:23.481Z,2.47
2023-01-31T07:50:53.101Z,1.58
2023-01-31T07:53:20.899Z,4.93
2023-01-31T07:55:48.659Z,5.65
2023-01-31T07:58:16.172Z,2.35
2023-01-31T08:01:01.038Z,5.95
2023-01-31T08:03:36.651Z,2.90
2023-01-31T08:06:07.881Z,4.32
2023-01-31T08:08:35.811Z,6.82
2023-01-31T08:11:05.014Z,8.07
2023-01-31T08:13:32.867Z,6.78
2023-01-31T08:16:00.410Z,4.47
2023-01-31T08:18:27.882Z,3.88
2023-01-31T08:20:55.168Z,4.78
2023-01-31T08:23:23.797Z,5.75
2023-01-31T08:25:51.124Z,5.28
2023-01-31T08:28:18.575Z,7.80
2023-01-31T08:30:53.313Z,6.22
2023-01-31T08:33:26.591Z,6.18
2023-01-31T08:35:55.196Z,4.93
2023-01-31T08:38:23.894Z,6.70
2023-01-31T08:40:51.477Z,2.90
2023-01-31T08:43:18.866Z,7.00
2023-01-31T08:45:47.661Z,2.55
2023-01-31T08:48:15.198Z,6.03
2023-01-31T08:50:42.513Z,6.03
2023-01-31T08:53:09.991Z,5.35
2023-01-31T08:55:38.741Z,5.68
2023-01-31T08:58:06.269Z,9.05
2023-01-31T09:00:33.933Z,4.40
2023-01-31T09:03:01.590Z,5.10
2023-01-31T09:05:30.191Z,5.35
2023-01-31T09:07:57.584Z,3.60
2023-01-31T09:10:25.415Z,6.20
2023-01-31T09:12:54.367Z,5.30
2023-01-31T09:15:22.215Z,4.38
2023-01-31T09:17:49.749Z,5.45
2023-01-31T09:20:17.336Z,4.82
2023-01-31T09:22:44.746Z,8.63
2023-01-31T09:25:12.737Z,6.63
2023-01-31T09:27:40.389Z,6.20
2023-01-31T09:30:10.340Z,5.95
2023-01-31T09:32:38.874Z,6.85
2023-01-31T09:35:06.607Z,4.88
2023-01-31T09:37:34.100Z,5.53
2023-01-31T09:40:01.466Z,7.28
2023-01-31T09:42:31.086Z,7.95
2023-01-31T09:45:00.951Z,5.45
2023-01-31T09:47:32.346Z,4.45
2023-01-31T09:50:01.837Z,6.28
2023-01-31T09:52:31.069Z,4.75
2023-01-31T09:54:58.361Z,4.68
2023-01-31T09:57:29.877Z,3.10
2023-01-31T10:00:00.195Z,2.67
2023-01-31T10:02:45.319Z,4.07
2023-01-31T10:05:21.447Z,5.05
2023-01-31T10:07:55.215Z,4.63
2023-01-31T10:10:28.934Z,2.90
2023-01-31T10:12:57.782Z,4.80
2023-01-31T10:15:30.408Z,3.67
2023-01-31T10:18:00.544Z,4.38
2023-01-31T10:20:33.478Z,4.78
2023-01-31T10:25:34.375Z,2.97
2023-01-31T10:28:03.293Z,3.03
2023-01-31T10:30:38.802Z,5.32
2023-01-31T10:33:11.744Z,1.50
2023-01-31T10:35:43.487Z,3.78
2023-01-31T10:38:15.564Z,3.42
2023-01-31T10:40:45.163Z,5.03
2023-01-31T10:43:15.064Z,4.00
2023-01-31T10:45:42.686Z,2.67
2023-01-31T10:48:15.063Z,2.63
2023-01-31T10:50:48.687Z,2.70
2023-01-31T10:53:24.366Z,1.90
2023-01-31T10:55:56.719Z,3.88
2023-01-31T10:58:24.516Z,3.33
2023-01-31T11:00:52.196Z,3.05
2023-01-31T11:03:19.859Z,3.40
2023-01-31T11:05:50.652Z,3.67
2023-01-31T11:08:28.925Z,3.97
2023-01-31T11:10:57.589Z,1.90
2023-01-31T11:13:25.651Z,2.22
2023-01-31T11:15:54.344Z,2.45
2023-01-31T11:18:29.443Z,3.63
2023-01-31T11:20:59.217Z,2.03
2023-01-31T11:23:27.613Z,1.50
2023-01-31T11:25:55.902Z,3.25
2023-01-31T11:28:24.467Z,2.72
2023-01-31T11:30:53.393Z,3.55
2023-01-31T11:33:40.747Z,1.65
2023-01-31T11:36:10.768Z,5.18
2023-01-31T11:38:38.075Z,4.85
2023-01-31T11:41:27.199Z,5.68
2023-01-31T11:44:07.509Z,4.75
2023-01-31T11:46:40.936Z,6.13
2023-01-31T11:49:12.095Z,5.03
2023-01-31T11:51:41.327Z,6.35
2023-01-31T11:54:08.909Z,4.68
2023-01-31T11:56:37.366Z,5.68
2023-01-31T11:59:09.499Z,5.50
2023-01-31T12:01:44.410Z,4.38
2023-01-31T12:04:16.895Z,3.90
2023-01-31T12:06:56.380Z,1.42
2023-01-31T12:09:24.943Z,5.00
2023-01-31T12:11:53.194Z,7.28
2023-01-31T12:14:20.471Z,4.03
2023-01-31T12:16:48.831Z,4.25
2023-01-31T12:19:22.055Z,1.40
2023-01-31T12:21:53.609Z,4.22
2023-01-31T12:24:27.525Z,2.90
2023-01-31T12:26:56.327Z,5.88
2023-01-31T12:29:37.569Z,3.03
2023-01-31T12:32:18.423Z,4.28
2023-01-31T12:35:04.114Z,3.75
2023-01-31T12:37:42.646Z,4.20
2023-01-31T12:40:25.048Z,2.13
2023-01-31T12:42:56.087Z,3.05
2023-01-31T12:45:31.554Z,3.75
2023-01-31T12:48:20.890Z,4.15
2023-01-31T12:50:51.797Z,3.25
2023-01-31T12:53:29.398Z,3.40
2023-01-31T12:56:04.791Z,5.72
2023-01-31T12:58:40.422Z,4.55
2023-01-31T13:01:10.209Z,4.03
2023-01-31T13:04:10.768Z,5.78
2023-01-31T13:06:40.155Z,6.05
2023-01-31T13:09:12.312Z,5.00
2023-01-31T13:11:41.744Z,7.13
2023-01-31T13:14:13.471Z,5.20
2023-01-31T13:16:43.007Z,4.95
2023-01-31T13:19:14.258Z,6.10
2023-01-31T13:21:44.311Z,7.60
2023-01-31T13:24:14.495Z,9.35
2023-01-31T13:26:45.137Z,4.93
2023-01-31T13:29:15.203Z,5.38
2023-01-31T13:31:44.984Z,3.10
2023-01-31T13:34:17.173Z,5.75
2023-01-31T13:36:46.429Z,4.90
2023-01-31T13:39:19.835Z,4.00
2023-01-31T13:41:47.149Z,8.43
2023-01-31T13:44:17.114Z,6.93
2023-01-31T13:46:51.220Z,4.15
2023-01-31T13:49:22.068Z,5.05
2023-01-31T13:51:51.167Z,5.63
2023-01-31T13:54:22.247Z,6.22
2023-01-31T13:56:51.655Z,7.65
2023-01-31T13:59:21.931Z,4.45
2023-01-31T14:01:50.902Z,4.95
2023-01-31T14:04:39.119Z,4.40
2023-01-31T14:07:17.711Z,5.35
2023-01-31T14:10:06.888Z,6.78
2023-01-31T14:12:35.666Z,5.60
2023-01-31T14:15:03.665Z,3.38
2023-01-31T14:17:52.028Z,5.00
2023-01-31T14:20:26.358Z,7.25
2023-01-31T14:23:08.556Z,7.75
2023-01-31T14:25:43.456Z,6.55
2023-01-31T14:28:11.381Z,4.75
2023-01-31T14:30:42.862Z,8.90
2023-01-31T14:33:17.813Z,5.25
2023-01-31T14:36:00.076Z,7.72
2023-01-31T14:38:32.453Z,8.13
2023-01-31T14:41:08.484Z,8.20
2023-01-31T14:43:42.538Z,10.77
2023-01-31T14:46:17.909Z,6.20
2023-01-31T14:49:05.837Z,10.15
2023-01-31T14:51:37.612Z,3.33
2023-01-31T14:54:24.497Z,4.95
2023-01-31T14:56:55.349Z,5.90
2023-01-31T14:59:34.241Z,5.88
2023-01-31T15:02:02.730Z,5.28
2023-01-31T15:04:30.510Z,6.55
2023-01-31T15:06:58.450Z,6.13
2023-01-31T15:09:39.524Z,6.65
2023-01-31T15:12:32.095Z,6.10
2023-01-31T15:14:59.500Z,9.77
2023-01-31T15:17:38.413Z,8.68
2023-01-31T15:20:14.451Z,7.90
2023-01-31T15:22:43.754Z,8.52
2023-01-31T15:25:21.696Z,9.68
2023-01-31T15:27:50.788Z,9.05
2023-01-31T15:30:19.532Z,12.55
2023-01-31T15:32:52.143Z,14.30
2023-01-31T15:35:23.446Z,16.50
2023-01-31T15:37:58.324Z,4.40
2023-01-31T15:40:26.280Z,6.97
2023-01-31T15:42:54.939Z,15.93
2023-01-31T15:45:23.987Z,5.22
2023-01-31T15:47:58.339Z,12.68
2023-01-31T15:50:25.858Z,9.20
2023-01-31T15:52:55.201Z,7.43
2023-01-31T15:55:23.262Z,7.20
2023-01-31T15:57:55.214Z,12.02
2023-01-31T16:00:26.109Z,4.50
2023-01-31T16:03:00.570Z,5.03
2023-01-31T16:05:28.256Z,10.32
2023-01-31T16:07:55.712Z,5.95
2023-01-31T16:10:23.324Z,6.38
2023-01-31T16:12:51.726Z,3.72
2023-01-31T16:15:22.207Z,6.20
2023-01-31T16:17:51.888Z,10.32
2023-01-31T16:20:36.351Z,4.53
2023-01-31T16:23:05.395Z,6.88
2023-01-31T16:25:35.839Z,11.20
2023-01-31T16:28:04.988Z,5.68
2023-01-31T16:30:34.704Z,5.05
2023-01-31T16:33:03.468Z,8.02
2023-01-31T16:35:30.918Z,3.70
2023-01-31T16:38:02.525Z,4.18
2023-01-31T16:40:30.832Z,6.70
2023-01-31T16:43:09.518Z,7.32
2023-01-31T16:45:36.792Z,6.75
2023-01-31T16:48:20.496Z,8.25
2023-01-31T16:50:47.993Z,2.13
2023-01-31T16:53:17.738Z,5.38
2023-01-31T16:55:45.314Z,4.78
2023-01-31T16:58:13.080Z,3.72
2023-01-31T17:00:41.901Z,3.67
2023-01-31T17:03:19.641Z,4.20
2023-01-31T17:05:47.815Z,6.25
2023-01-31T17:08:16.254Z,7.90
2023-01-31T17:10:43.668Z,5.15
2023-01-31T17:13:16.821Z,7.88
2023-01-31T17:15:44.166Z,7.22
2023-01-31T17:18:11.561Z,5.38
2023-01-31T17:20:41.446Z,4.53
2023-01-31T17:23:09.999Z,4.82
2023-01-31T17:25:37.468Z,4.03
2023-01-31T17:28:05.140Z,5.57
2023-01-31T17:30:32.920Z,5.60
2023-01-31T17:33:00.635Z,2.25
2023-01-31T17:35:29.153Z,6.20
2023-01-31T17:37:57.805Z,4.97
2023-01-31T17:40:25.102Z,2.85
2023-01-31T17:42:53.857Z,4.20
2023-01-31T17:45:21.508Z,2.35
2023-01-31T17:47:48.972Z,1.98
2023-01-31T17:50:17.021Z,3.40
2023-01-31T17:52:44.536Z,3.88
2023-01-31T17:55:15.168Z,2.40
2023-01-31T17:57:42.636Z,5.65
2023-01-31T18:00:12.007Z,2.22
2023-01-31T18:02:42.067Z,3.88
2023-01-31T18:05:09.983Z,3.25
2023-01-31T18:07:37.663Z,4.10
2023-01-31T18:10:06.040Z,2.83
2023-01-31T18:12:36.493Z,4.35
2023-01-31T18:15:04.153Z,2.58
2023-01-31T18:17:31.738Z,5.38
2023-01-31T18:19:59.069Z,5.47
2023-01-31T18:22:26.650Z,4.60
2023-01-31T18:24:53.914Z,3.85
2023-01-31T18:27:21.181Z,3.00
2023-01-31T18:29:49.801Z,3.90
2023-01-31T18:32:19.267Z,4.88
2023-01-31T18:34:47.452Z,4.78
2023-01-31T18:37:20.060Z,5.35
2023-01-31T18:39:48.551Z,4.82
2023-01-31T18:42:15.812Z,7.80
2023-01-31T18:44:44.169Z,3.35
2023-01-31T18:47:13.005Z,2.95
2023-01-31T18:49:40.428Z,2.75
2023-01-31T18:52:07.984Z,4.15
2023-01-31T18:54:37.305Z,3.78
2023-01-31T18:57:04.878Z,4.57
2023-01-31T18:59:33.916Z,4.20
2023-01-31T19:02:01.663Z,3.67
2023-01-31T19:04:30.374Z,2.67
2023-01-31T19:06:57.616Z,2.13
2023-01-31T19:09:24.927Z,2.60
2023-01-31T19:11:52.284Z,4.65
2023-01-31T19:14:20.067Z,3.85
2023-01-31T19:16:49.149Z,1.92
2023-01-31T19:19:16.727Z,3.97
2023-01-31T19:21:45.337Z,2.90
2023-01-31T19:24:13.837Z,2.08
2023-01-31T19:26:41.704Z,6.93
2023-01-31T19:29:10.027Z,2.70
2023-01-31T19:31:37.392Z,3.90
2023-01-31T19:34:05.851Z,2.25
2023-01-31T19:36:34.579Z,3.45
2023-01-31T19:39:05.072Z,3.28
2023-01-31T19:41:33.344Z,3.80
2023-01-31T19:44:01.346Z,4.00
2023-01-31T19:46:30.094Z,3.05
2023-01-31T19:48:58.057Z,2.65
2023-01-31T19:51:26.058Z,3.30
2023-01-31T19:53:54.867Z,2.47
2023-01-31T19:56:25.394Z,3.20
2023-01-31T19:58:52.722Z,2.20
2023-01-31T20:01:20.398Z,2.33
2023-01-31T20:03:47.972Z,3.58
2023-01-31T20:06:16.630Z,2.97
2023-01-31T20:08:44.157Z,2.50
2023-01-31T20:11:11.547Z,2.28
2023-01-31T20:13:41.587Z,2.33
2023-01-31T20:16:10.130Z,0.70
2023-01-31T20:18:38.349Z,3.17
2023-01-31T20:21:05.913Z,2.38
2023-01-31T20:23:33.664Z,2.53
2023-01-31T20:26:01.424Z,0.52
2023-01-31T20:28:28.684Z,2.03
2023-01-31T20:31:03.539Z,3.03
2023-01-31T20:33:30.844Z,3.28
2023-01-31T20:35:58.231Z,2.28
2023-01-31T20:38:25.981Z,2.45
2023-01-31T20:40:54.254Z,2.92
2023-01-31T20:43:22.620Z,3.70
2023-01-31T20:45:49.955Z,2.47
2023-01-31T20:48:18.914Z,3.30
2023-01-31T20:50:54.337Z,2.17
2023-01-31T20:53:21.720Z,3.05
2023-01-31T20:55:54.334Z,4.57
2023-01-31T20:58:22.119Z,2.78
2023-01-31T21:00:49.376Z,0.73
2023-01-31T21:03:16.661Z,2.17
2023-01-31T21:05:45.318Z,2.55
2023-01-31T21:08:12.547Z,2.50
2023-01-31T21:10:40.863Z,1.42
2023-01-31T21:13:08.871Z,0.98
2023-01-31T21:15:36.356Z,1.92
2023-01-31T21:18:03.663Z,2.63
2023-01-31T21:20:30.933Z,2.55
2023-01-31T21:22:59.537Z,1.83
2023-01-31T21:25:26.887Z,0.40
2023-01-31T21:27:54.146Z,2.08
2023-01-31T21:30:21.801Z,1.38
2023-01-31T21:32:49.207Z,1.15
2023-01-31T21:35:16.569Z,2.97
2023-01-31T21:37:44.007Z,2.70
2023-01-31T21:40:13.262Z,1.33
2023-01-31T21:42:42.031Z,2.92
2023-01-31T21:45:10.584Z,3.28
2023-01-31T21:47:58.653Z,1.30
2023-01-31T21:50:25.973Z,1.98
2023-01-31T21:52:54.509Z,1.55
2023-01-31T21:55:23.363Z,2.28
2023-01-31T21:57:50.604Z,2.38
2023-01-31T22:00:19.462Z,0.60
2023-01-31T22:02:51.836Z,3.75
2023-01-31T22:05:19.160Z,2.75
2023-01-31T22:07:47.839Z,0.68
2023-01-31T22:10:15.143Z,4.68
2023-01-31T22:12:43.772Z,1.90
2023-01-31T22:15:11.053Z,4.65
2023-01-31T22:17:38.347Z,2.83
2023-01-31T22:20:08.363Z,1.05
2023-01-31T22:22:35.640Z,2.17
2023-01-31T22:25:03.075Z,2.72
2023-01-31T22:27:30.312Z,2.50
2023-01-31T22:30:13.947Z,2.47
2023-01-31T22:32:42.887Z,0.90
2023-01-31T22:35:10.948Z,2.80
2023-01-31T22:37:38.193Z,3.10
2023-01-31T22:40:05.793Z,1.48
2023-01-31T22:42:33.194Z,2.28
2023-01-31T22:45:03.628Z,2.30
2023-01-31T22:47:30.908Z,1.42
2023-01-31T22:49:58.129Z,4.13
2023-01-31T22:52:25.818Z,2.25
2023-01-31T22:54:53.194Z,2.05
2023-01-31T22:57:21.240Z,1.95
2023-01-31T22:59:48.706Z,1.85
2023-01-31T23:02:17.311Z,1.23
2023-01-31T23:04:44.607Z,1.95
2023-01-31T23:07:11.870Z,2.38
2023-01-31T23:09:39.582Z,2.40
2023-01-31T23:12:07.213Z,2.70
2023-01-31T23:14:34.650Z,1.65
2023-01-31T23:17:34.196Z,3.33
2023-01-31T23:20:02.923Z,1.33
2023-01-31T23:22:30.164Z,2.95
2023-01-31T23:24:57.412Z,2.22
2023-01-31T23:27:24.727Z,2.72
2023-01-31T23:29:52.171Z,2.05
2023-01-31T23:32:19.760Z,4.80
2023-01-31T23:34:47.060Z,0.82
2023-01-31T23:37:15.939Z,4.28
2023-01-31T23:39:43.980Z,2.85
2023-01-31T23:42:11.318Z,2.25
2023-01-31T23:44:38.592Z,3.17
2023-01-31T23:47:06.269Z,2.88
2023-01-31T23:49:33.574Z,3.13
2023-01-31T23:52:00.819Z,1.15
2023-01-31T23:54:29.415Z,2.40
2023-01-31T23:56:57.400Z,3.33
2023-01-31T23:59:24.893Z,2.20
